Time;durP1;ratioP1;P1;durP2;ratioP2;P2;SDS_P1;SDS_P2;PMS_P1;PMS_P2;Temp;Humidity;BMP_temperature;BMP_pressure;BME280_temperature;BME280_humidity;BME280_pressure;Samples;Min_cycle;Max_cycle;Signal;HPM_P1;HPM_P2
2021/08/03 00:00:57;;;;;;;4.93;3.20;;;;;;;15.28;64.46;98867.08;125701;1092;102907;-72
2021/08/03 00:03:36;;;;;;;6.93;3.53;;;;;;;15.25;64.57;98862.84;125707;1093;102939;-72
2021/08/03 00:06:20;;;;;;;4.70;2.87;;;;;;;15.24;64.50;98871.05;125746;1093;103128;-73
2021/08/03 00:08:56;;;;;;;8.17;3.17;;;;;;;15.23;64.62;98875.54;125720;1093;103138;-71
2021/08/03 00:11:32;;;;;;;7.03;3.27;;;;;;;15.26;64.59;98877.93;125685;1093;103025;-72
2021/08/03 00:14:04;;;;;;;5.90;3.17;;;;;;;15.29;64.75;98874.95;125714;1094;103081;-72
2021/08/03 00:16:41;;;;;;;6.90;3.30;;;;;;;15.32;64.72;98871.13;125696;1093;102932;-72
2021/08/03 00:19:14;;;;;;;6.40;3.63;;;;;;;15.32;64.84;98871.98;125647;1093;102916;-70
2021/08/03 00:21:42;;;;;;;5.78;3.45;;;;;;;15.36;64.83;98874.38;125740;1093;102937;-70
2021/08/03 00:24:11;;;;;;;4.97;3.03;;;;;;;15.38;64.85;98875.91;125701;1093;103010;-70
2021/08/03 00:26:39;;;;;;;8.07;3.13;;;;;;;15.40;64.88;98875.77;125730;1094;103003;-72
2021/08/03 00:29:12;;;;;;;10.27;3.93;;;;;;;15.36;64.88;98872.52;125761;1093;103179;-72
2021/08/03 00:31:46;;;;;;;6.90;3.00;;;;;;;15.30;64.80;98873.97;125672;1093;102942;-72
2021/08/03 00:34:19;;;;;;;5.87;3.50;;;;;;;15.24;64.78;98879.08;125698;1093;102977;-70
2021/08/03 00:36:52;;;;;;;6.38;3.30;;;;;;;15.16;64.85;98877.97;125673;1093;102913;-71
2021/08/03 00:39:24;;;;;;;5.67;3.13;;;;;;;15.11;64.92;98876.70;125700;1094;102909;-71
2021/08/03 00:42:00;;;;;;;4.90;3.00;;;;;;;15.05;64.82;98872.78;125637;1093;102919;-72
2021/08/03 00:44:50;;;;;;;6.97;3.70;;;;;;;15.02;64.95;98878.42;125597;1093;102951;-72
2021/08/03 00:47:21;;;;;;;6.35;3.50;;;;;;;14.97;65.04;98886.91;125531;1093;103073;-72
2021/08/03 00:49:50;;;;;;;8.23;3.60;;;;;;;14.92;64.98;98877.59;125652;1093;103067;-73
2021/08/03 00:52:20;;;;;;;10.67;3.43;;;;;;;14.88;64.97;98893.95;125676;1091;103781;-71
2021/08/03 00:54:48;;;;;;;8.47;3.40;;;;;;;14.83;65.12;98893.56;125608;1093;102994;-71
2021/08/03 00:57:17;;;;;;;6.30;3.30;;;;;;;14.78;65.14;98894.95;125655;1093;102948;-71
2021/08/03 00:59:45;;;;;;;6.60;3.50;;;;;;;14.77;65.07;98902.16;125603;1092;103436;-71
2021/08/03 01:02:14;;;;;;;9.37;3.47;;;;;;;14.73;65.26;98896.23;125570;1093;102976;-71
2021/08/03 01:04:42;;;;;;;5.27;3.30;;;;;;;14.72;65.32;98897.21;125489;1093;103024;-71
2021/08/03 01:07:32;;;;;;;6.10;3.40;;;;;;;14.72;65.39;98889.18;125508;1093;103086;-70
2021/08/03 01:10:16;;;;;;;7.57;3.47;;;;;;;14.71;65.31;98890.17;125604;1092;102936;-71
2021/08/03 01:13:10;;;;;;;11.37;4.10;;;;;;;14.68;65.41;98886.91;125694;1092;103065;-73
2021/08/03 01:16:01;;;;;;;7.03;3.53;;;;;;;14.65;65.29;98884.52;125658;1093;102945;-71
2021/08/03 01:18:50;;;;;;;6.30;2.83;;;;;;;14.61;65.36;98889.33;125680;1093;102929;-71
2021/08/03 01:21:43;;;;;;;7.07;3.53;;;;;;;14.56;65.32;98886.23;125635;1093;102998;-70
2021/08/03 01:24:33;;;;;;;7.30;3.27;;;;;;;14.52;65.41;98890.17;125703;1094;103087;-71
2021/08/03 01:27:40;;;;;;;5.97;3.47;;;;;;;14.53;65.70;98891.86;125692;1093;103021;-70
2021/08/03 01:30:10;;;;;;;5.05;3.40;;;;;;;14.52;65.55;98885.64;125662;1092;102950;-71
2021/08/03 01:32:42;;;;;;;5.35;3.30;;;;;;;14.51;65.69;98883.13;125660;1096;103151;-70
2021/08/03 01:35:12;;;;;;;7.37;3.50;;;;;;;14.47;65.73;98879.87;125605;1093;103518;-72
2021/08/03 01:37:41;;;;;;;7.13;3.27;;;;;;;14.45;65.77;98879.20;125487;1093;102951;-71
2021/08/03 01:40:13;;;;;;;7.23;3.17;;;;;;;14.43;65.73;98879.32;125636;1096;103380;-71
2021/08/03 01:42:43;;;;;;;7.83;3.40;;;;;;;14.46;65.81;98888.05;125588;1093;103073;-72
2021/08/03 01:45:13;;;;;;;7.37;3.50;;;;;;;14.49;65.78;98888.60;125487;1093;103007;-69
2021/08/03 01:47:42;;;;;;;6.43;3.50;;;;;;;14.51;65.67;98893.83;125577;1091;102922;-70
2021/08/03 01:50:12;;;;;;;6.57;3.30;;;;;;;14.52;65.73;98892.84;125627;1093;102942;-72
2021/08/03 01:52:42;;;;;;;9.43;4.00;;;;;;;14.50;65.85;98894.81;125699;1093;103043;-72
2021/08/03 01:55:12;;;;;;;6.53;3.57;;;;;;;14.48;65.91;98884.23;127098;1093;102917;-71
2021/08/03 01:57:43;;;;;;;7.07;3.90;;;;;;;14.50;65.87;98895.64;125580;1093;102940;-70
2021/08/03 02:00:12;;;;;;;5.93;3.40;;;;;;;14.51;66.08;98891.98;125669;1093;103046;-72
2021/08/03 02:02:41;;;;;;;7.13;3.77;;;;;;;14.52;66.12;98899.03;125675;1097;102912;-72
2021/08/03 02:05:11;;;;;;;6.63;3.67;;;;;;;14.54;65.92;98898.91;125676;1097;102937;-72
2021/08/03 02:07:41;;;;;;;7.13;3.63;;;;;;;14.52;66.11;98893.67;125587;1093;102912;-70
2021/08/03 02:10:10;;;;;;;8.45;3.75;;;;;;;14.53;65.93;98897.21;125589;1093;102937;-70
2021/08/03 02:12:39;;;;;;;7.10;3.70;;;;;;;14.46;65.92;98891.59;125619;1094;103065;-71
2021/08/03 02:15:09;;;;;;;11.00;4.03;;;;;;;14.42;66.12;98898.20;125660;1093;102908;-71
2021/08/03 02:17:38;;;;;;;8.80;4.10;;;;;;;14.36;66.10;98901.44;125538;1093;103190;-71
2021/08/03 02:20:07;;;;;;;10.75;4.20;;;;;;;14.26;66.15;98902.27;125600;1096;103103;-70
2021/08/03 02:22:37;;;;;;;6.47;3.70;;;;;;;14.16;65.95;98900.58;125673;1093;102991;-72
2021/08/03 02:25:09;;;;;;;7.87;3.80;;;;;;;13.93;65.72;98904.34;125631;1093;102945;-70
2021/08/03 02:27:39;;;;;;;10.23;3.70;;;;;;;13.71;65.90;98900.05;125683;1091;103036;-70
2021/08/03 02:30:09;;;;;;;14.00;4.27;;;;;;;13.52;66.13;98901.66;125600;1093;102945;-71
2021/08/03 02:33:04;;;;;;;7.05;4.15;;;;;;;13.38;66.03;98905.52;125701;1093;103009;-72
2021/08/03 02:35:39;;;;;;;10.00;4.40;;;;;;;13.33;66.34;98907.73;125700;1093;102919;-71
2021/08/03 02:38:12;;;;;;;5.93;3.80;;;;;;;13.32;66.65;98908.72;125641;1097;103005;-70
2021/08/03 02:40:42;;;;;;;12.33;4.07;;;;;;;13.33;66.51;98904.23;125701;1092;103003;-71
2021/08/03 02:43:15;;;;;;;7.07;4.00;;;;;;;13.33;66.66;98906.91;125702;1093;103515;-71
2021/08/03 02:45:43;;;;;;;7.00;3.98;;;;;;;13.34;66.49;98912.10;125643;1093;103000;-71
2021/08/03 02:48:15;;;;;;;8.87;4.00;;;;;;;13.27;66.61;98916.28;125683;1096;102884;-72
2021/08/03 02:50:45;;;;;;;9.27;4.70;;;;;;;13.10;66.17;98929.28;125671;1093;102942;-71
2021/08/03 02:53:25;;;;;;;10.53;4.33;;;;;;;13.00;66.50;98931.03;125695;1093;103017;-71
2021/08/03 02:56:03;;;;;;;6.53;3.90;;;;;;;12.89;66.54;98925.75;125661;1095;103364;-69
2021/08/03 02:58:39;;;;;;;12.97;5.27;;;;;;;12.78;66.85;98926.67;125673;1097;103004;-69
2021/08/03 03:01:11;;;;;;;10.23;4.57;;;;;;;12.75;66.95;98930.45;125644;1093;103169;-70
2021/08/03 03:03:46;;;;;;;10.50;4.77;;;;;;;12.77;66.86;98922.30;125660;1095;103024;-72
2021/08/03 03:06:17;;;;;;;14.23;5.50;;;;;;;12.81;67.21;98926.41;125688;1093;103127;-71
2021/08/03 03:08:47;;;;;;;10.93;4.90;;;;;;;12.86;67.17;98934.88;125656;1093;103034;-74
2021/08/03 03:11:17;;;;;;;10.17;4.60;;;;;;;12.91;67.31;98935.34;125640;1093;102986;-76
2021/08/03 03:13:51;;;;;;;9.57;4.50;;;;;;;12.94;67.14;98934.22;125669;1093;103016;-73
2021/08/03 03:16:22;;;;;;;13.87;5.97;;;;;;;12.96;67.50;98937.61;125638;1093;103065;-71
2021/08/03 03:18:51;;;;;;;8.57;4.50;;;;;;;12.98;67.37;98927.64;125659;1094;103010;-70
2021/08/03 03:21:22;;;;;;;10.33;4.70;;;;;;;12.99;67.46;98926.67;125718;1093;103103;-70
2021/08/03 03:23:53;;;;;;;10.83;4.47;;;;;;;13.01;67.69;98927.39;125600;1093;102909;-70
2021/08/03 03:26:28;;;;;;;8.23;4.50;;;;;;;13.05;67.65;98930.63;125672;1096;102998;-71
2021/08/03 03:28:58;;;;;;;8.93;4.40;;;;;;;13.06;67.57;98926.98;125567;1093;102994;-70
2021/08/03 03:31:31;;;;;;;9.83;4.77;;;;;;;13.03;67.77;98935.28;125650;1093;102916;-71
2021/08/03 03:34:08;;;;;;;9.40;4.35;;;;;;;13.02;67.68;98930.92;125659;1093;102913;-72
2021/08/03 03:36:39;;;;;;;8.53;4.47;;;;;;;12.95;67.60;98935.91;125551;1093;103036;-71
2021/08/03 03:39:09;;;;;;;8.20;4.57;;;;;;;12.98;67.76;98940.16;125697;1093;103377;-72
2021/08/03 03:41:40;;;;;;;10.90;4.70;;;;;;;13.03;68.05;98944.13;125757;1093;102925;-70
2021/08/03 03:44:08;;;;;;;8.63;4.43;;;;;;;13.09;67.89;98953.42;125647;1093;102908;-68
2021/08/03 03:46:54;;;;;;;7.00;4.00;;;;;;;13.14;68.01;98948.55;125680;1093;103020;-74
2021/08/03 03:49:25;;;;;;;10.97;5.07;;;;;;;13.20;68.08;98956.03;125560;1092;102965;-72
2021/08/03 03:51:56;;;;;;;11.17;4.13;;;;;;;13.25;67.83;98950.29;125761;1093;103065;-72
2021/08/03 03:54:28;;;;;;;8.17;4.20;;;;;;;13.28;67.96;98952.70;125682;1093;102917;-73
2021/08/03 03:57:02;;;;;;;9.00;3.77;;;;;;;13.33;68.27;98950.48;125690;1093;102911;-72
2021/08/03 03:59:32;;;;;;;9.60;4.57;;;;;;;13.37;68.03;98941.22;125730;1093;102920;-74
2021/08/03 04:02:03;;;;;;;6.63;4.30;;;;;;;13.41;68.23;98941.86;125613;1092;102916;-72
2021/08/03 04:04:35;;;;;;;9.67;4.20;;;;;;;13.45;68.34;98953.94;125655;1093;102908;-73
2021/08/03 04:07:04;;;;;;;8.77;4.27;;;;;;;13.51;68.17;98957.92;125609;1092;102945;-72
2021/08/03 04:09:32;;;;;;;11.50;4.07;;;;;;;13.54;68.33;98950.48;125534;1092;103437;-72
2021/08/03 04:12:00;;;;;;;9.23;4.67;;;;;;;13.59;68.29;98954.58;125548;1093;102921;-71
2021/08/03 04:14:30;;;;;;;9.07;4.23;;;;;;;13.64;68.34;98961.23;125421;1094;103000;-70
2021/08/03 04:16:58;;;;;;;7.63;4.23;;;;;;;13.72;68.22;98954.34;125720;1093;102977;-72
2021/08/03 04:19:27;;;;;;;9.27;4.20;;;;;;;13.76;68.31;98955.77;125583;1093;102918;-72
2021/08/03 04:21:55;;;;;;;10.50;4.80;;;;;;;13.76;68.09;98955.77;125607;1093;103029;-70
2021/08/03 04:24:23;;;;;;;6.77;4.00;;;;;;;13.75;68.31;98959.42;125551;1093;102918;-69
2021/08/03 04:26:52;;;;;;;8.77;4.70;;;;;;;13.77;68.40;98968.16;125613;1093;102980;-66
2021/08/03 04:29:20;;;;;;;10.43;4.70;;;;;;;13.82;68.44;98963.25;125558;1093;102937;-68
2021/08/03 04:31:48;;;;;;;10.23;4.60;;;;;;;13.85;68.52;98965.66;125611;1093;102933;-68
2021/08/03 04:34:17;;;;;;;11.07;4.70;;;;;;;13.89;68.57;98963.55;125672;1092;102935;-71
2021/08/03 04:36:45;;;;;;;9.83;4.70;;;;;;;13.96;68.79;98972.72;125623;1093;102943;-73
2021/08/03 04:39:13;;;;;;;10.93;5.00;;;;;;;14.02;68.87;98974.86;125641;1093;102952;-73
2021/08/03 04:41:42;;;;;;;12.10;5.45;;;;;;;14.08;68.83;98976.13;125617;1093;102930;-71
2021/08/03 04:44:10;;;;;;;11.20;5.10;;;;;;;14.15;69.02;98985.30;125640;1093;102951;-74
2021/08/03 04:46:38;;;;;;;9.80;4.67;;;;;;;14.21;68.82;98981.26;125673;1093;102923;-75
2021/08/03 04:49:07;;;;;;;7.13;4.27;;;;;;;14.28;69.03;98982.38;125637;1093;103012;-75
2021/08/03 04:51:35;;;;;;;10.95;4.70;;;;;;;14.33;69.07;98982.81;125633;1093;102948;-72
2021/08/03 04:54:04;;;;;;;10.03;4.50;;;;;;;14.39;69.07;98982.27;125401;1093;103106;-74
2021/08/03 04:56:33;;;;;;;10.07;4.60;;;;;;;14.44;68.94;98985.38;125609;1093;102933;-68
2021/08/03 04:59:01;;;;;;;10.27;4.37;;;;;;;14.51;68.92;98984.82;125656;1093;102933;-73
2021/08/03 05:01:30;;;;;;;8.33;3.87;;;;;;;14.56;68.92;98990.61;125707;1093;103041;-72
2021/08/03 05:04:00;;;;;;;6.73;4.17;;;;;;;14.62;69.23;98986.52;125583;1094;102913;-72
2021/08/03 05:06:29;;;;;;;8.07;4.13;;;;;;;14.68;69.17;98993.99;125598;1093;103053;-74
2021/08/03 05:08:57;;;;;;;8.23;4.30;;;;;;;14.75;69.13;98995.16;125561;1094;103405;-72
2021/08/03 05:11:26;;;;;;;8.33;4.50;;;;;;;14.82;69.16;98995.44;125621;1093;103001;-75
2021/08/03 05:13:57;;;;;;;8.27;4.50;;;;;;;14.89;69.20;98999.24;125616;1093;103534;-72
2021/08/03 05:16:28;;;;;;;9.70;4.47;;;;;;;14.95;69.26;98992.47;125594;1093;103032;-73
2021/08/03 05:18:57;;;;;;;7.90;4.40;;;;;;;15.01;69.31;98992.77;125613;1094;103119;-72
2021/08/03 05:21:25;;;;;;;9.80;4.57;;;;;;;15.07;69.33;98998.55;125618;1093;103038;-73
2021/08/03 05:23:54;;;;;;;6.95;3.85;;;;;;;15.13;69.31;98998.81;125591;1096;103036;-73
2021/08/03 05:26:22;;;;;;;8.83;4.40;;;;;;;15.19;69.29;99000.06;125601;1093;103009;-69
2021/08/03 05:28:51;;;;;;;9.57;4.30;;;;;;;15.26;69.27;99005.72;125594;1093;103036;-70
2021/08/03 05:31:19;;;;;;;8.33;4.23;;;;;;;15.31;69.25;99004.28;125596;1093;103035;-69
2021/08/03 05:33:50;;;;;;;6.77;3.83;;;;;;;15.38;69.52;98993.82;125581;1093;103061;-72
2021/08/03 05:36:19;;;;;;;7.73;4.17;;;;;;;15.45;69.27;98991.42;125624;1092;102936;-74
2021/08/03 05:38:47;;;;;;;8.70;4.00;;;;;;;15.52;69.30;98992.52;125601;1093;103035;-76
2021/08/03 05:41:15;;;;;;;7.63;4.10;;;;;;;15.59;69.33;99004.34;125558;1092;102913;-73
2021/08/03 05:43:44;;;;;;;10.93;3.90;;;;;;;15.66;69.26;99001.95;125637;1092;102945;-70
2021/08/03 05:46:12;;;;;;;7.60;3.87;;;;;;;15.74;69.45;99003.89;125593;1093;102967;-70
2021/08/03 05:48:41;;;;;;;7.33;3.93;;;;;;;15.81;69.56;99009.50;125581;1093;102968;-71
2021/08/03 05:51:09;;;;;;;11.07;4.10;;;;;;;15.89;69.46;99001.60;125624;1092;102901;-71
2021/08/03 05:53:37;;;;;;;7.23;3.90;;;;;;;15.96;69.47;99007.21;125526;1096;103498;-70
2021/08/03 05:56:06;;;;;;;9.67;4.13;;;;;;;16.03;69.18;99011.86;125595;1093;103064;-72
2021/08/03 05:58:35;;;;;;;9.20;4.60;;;;;;;16.10;69.13;99006.73;125625;1091;103020;-74
2021/08/03 06:01:03;;;;;;;9.43;3.90;;;;;;;16.16;69.51;99008.82;125621;1096;103029;-73
2021/08/03 06:03:31;;;;;;;8.20;3.90;;;;;;;16.23;69.38;99009.06;125524;1096;102999;-73
2021/08/03 06:06:00;;;;;;;5.80;3.73;;;;;;;16.29;69.31;99013.00;125522;1094;103082;-70
2021/08/03 06:08:33;;;;;;;6.37;3.63;;;;;;;16.35;69.17;99004.33;125710;1093;102942;-72
2021/08/03 06:11:02;;;;;;;7.30;3.47;;;;;;;16.42;69.48;99010.78;125687;1093;103091;-72
2021/08/03 06:13:35;;;;;;;7.70;3.63;;;;;;;16.48;69.10;99007.50;125675;1093;102927;-72
2021/08/03 06:16:05;;;;;;;9.63;3.93;;;;;;;16.54;69.38;99006.04;125735;1093;103003;-70
2021/08/03 06:18:37;;;;;;;6.37;3.43;;;;;;;16.61;69.36;99007.13;125670;1092;103118;-71
2021/08/03 06:21:06;;;;;;;9.17;3.70;;;;;;;16.68;69.09;99015.44;125714;1093;103017;-71
2021/08/03 06:23:36;;;;;;;8.03;3.37;;;;;;;16.75;69.45;99016.48;125735;1093;102923;-72
2021/08/03 06:26:06;;;;;;;6.07;3.13;;;;;;;16.85;69.00;99015.58;125578;1093;103130;-71
2021/08/03 06:28:35;;;;;;;10.40;3.70;;;;;;;16.92;69.53;99017.48;125577;1095;103012;-70
2021/08/03 06:31:05;;;;;;;7.30;3.33;;;;;;;17.01;69.34;99015.77;125743;1093;103000;-71
2021/08/03 06:33:33;;;;;;;7.70;3.67;;;;;;;17.11;69.10;99013.85;125708;1096;102945;-70
2021/08/03 06:36:02;;;;;;;6.33;3.50;;;;;;;17.18;69.31;99003.31;125659;1095;102948;-71
2021/08/03 06:38:30;;;;;;;5.33;3.43;;;;;;;17.23;69.04;99006.38;125728;1093;102937;-73
2021/08/03 06:41:08;;;;;;;6.43;3.30;;;;;;;17.29;68.78;99015.66;125581;1092;103016;-76
2021/08/03 06:43:44;;;;;;;6.77;3.50;;;;;;;17.36;68.88;99019.41;125611;1093;103015;-77
2021/08/03 06:46:14;;;;;;;7.87;3.83;;;;;;;17.43;68.71;99016.92;125507;1096;103154;-71
2021/08/03 06:48:55;;;;;;;6.43;3.53;;;;;;;17.51;68.88;99014.30;125547;1093;102943;-72
2021/08/03 06:51:24;;;;;;;5.83;3.30;;;;;;;17.56;68.68;99011.13;125645;1093;102916;-73
2021/08/03 06:54:00;;;;;;;6.33;3.57;;;;;;;17.62;69.20;99013.19;125562;1091;103012;-70
2021/08/03 06:57:08;;;;;;;6.25;3.20;;;;;;;17.70;68.61;99010.55;125625;1093;103036;-71
2021/08/03 06:59:48;;;;;;;6.17;3.10;;;;;;;17.78;68.56;99015.13;125718;1093;103032;-72
2021/08/03 07:02:27;;;;;;;4.47;3.20;;;;;;;17.88;68.72;99012.34;125552;1093;103093;-70
2021/08/03 07:05:07;;;;;;;7.93;3.30;;;;;;;17.96;68.51;99008.84;125644;1093;102995;-69
2021/08/03 07:07:36;;;;;;;7.53;3.50;;;;;;;18.07;68.90;99010.42;126344;1093;102908;-69
2021/08/03 07:10:07;;;;;;;8.33;3.60;;;;;;;18.24;68.46;99012.19;125637;1093;102916;-77
2021/08/03 07:12:35;;;;;;;5.40;3.17;;;;;;;19.63;66.82;99003.55;125675;1093;103058;-82
2021/08/03 07:15:07;;;;;;;3.57;2.70;;;;;;;21.34;66.22;98998.44;125775;1093;102918;-73
2021/08/03 07:17:37;;;;;;;4.73;2.90;;;;;;;23.17;66.37;98995.09;125702;1094;103030;-71
2021/08/03 07:20:10;;;;;;;4.33;2.43;;;;;;;24.91;65.79;98998.97;125661;1093;102997;-74
2021/08/03 07:22:40;;;;;;;7.10;2.70;;;;;;;26.54;65.63;98999.35;125983;1093;102988;-71
2021/08/03 07:25:10;;;;;;;5.60;2.80;;;;;;;27.78;65.24;98998.02;125658;1093;103006;-70
2021/08/03 07:27:39;;;;;;;6.53;2.57;;;;;;;28.88;64.46;99000.09;125612;1093;103550;-74
2021/08/03 07:30:10;;;;;;;5.90;2.60;;;;;;;30.06;65.29;98994.94;125705;1093;102916;-74
2021/08/03 07:32:38;;;;;;;6.37;2.40;;;;;;;31.46;65.23;99001.95;125704;1093;103094;-81
2021/08/03 07:35:09;;;;;;;4.50;2.10;;;;;;;32.79;64.27;99001.20;125709;1092;103086;-82
2021/08/03 07:37:38;;;;;;;3.93;2.07;;;;;;;33.43;63.31;99001.52;125690;1092;103036;-86
2021/08/03 07:40:08;;;;;;;6.00;2.50;;;;;;;33.57;62.22;98999.14;125938;1094;102932;-77
2021/08/03 07:42:36;;;;;;;5.23;2.30;;;;;;;34.56;63.04;99000.47;125639;1093;102924;-84
2021/08/03 07:45:06;;;;;;;5.53;1.97;;;;;;;35.62;62.90;99007.48;125767;1093;103129;-86
2021/08/03 07:47:35;;;;;;;5.33;1.93;;;;;;;36.66;62.88;99005.19;125795;1093;102999;-75
2021/08/03 07:50:05;;;;;;;4.20;2.30;;;;;;;37.85;62.16;99006.17;125688;1093;103550;-82
2021/08/03 07:52:34;;;;;;;4.13;1.93;;;;;;;38.13;60.31;99001.69;125836;1093;103380;-86
2021/08/03 07:55:02;;;;;;;3.37;2.07;;;;;;;38.19;59.84;99002.47;125784;1092;103012;-79
2021/08/03 07:57:31;;;;;;;3.53;2.90;;;;;;;38.52;59.60;99008.16;125887;1093;102340;-79
2021/08/03 07:59:59;;;;;;;9.30;4.53;;;;;;;39.50;59.80;99009.44;125553;1093;102953;-75
2021/08/03 08:02:30;;;;;;;4.73;2.30;;;;;;;40.04;59.03;99004.25;125435;1092;102939;-76
2021/08/03 08:04:58;;;;;;;;;;;;;;;40.58;55.84;99005.63;125598;1093;103064;-76
2021/08/03 08:07:27;;;;;;;3.10;1.93;;;;;;;40.06;55.79;99006.70;125639;1091;103013;-74
2021/08/03 08:09:59;;;;;;;4.40;2.10;;;;;;;39.56;55.84;99008.19;125597;1093;102916;-86
2021/08/03 08:12:28;;;;;;;4.40;1.80;;;;;;;39.31;54.43;99001.13;125853;1091;103057;-79
2021/08/03 08:14:57;;;;;;;4.03;2.10;;;;;;;38.77;53.62;99001.41;125882;1093;103071;-82
2021/08/03 08:17:25;;;;;;;5.65;2.40;;;;;;;38.81;54.57;98991.34;125578;1092;102939;-79
2021/08/03 08:19:53;;;;;;;6.50;2.20;;;;;;;39.40;54.15;98999.30;125989;1092;103031;-80
2021/08/03 08:22:22;;;;;;;3.80;2.00;;;;;;;39.73;52.30;98993.70;125973;1092;103041;-78
2021/08/03 08:24:50;;;;;;;3.33;1.90;;;;;;;39.70;51.76;98994.31;125569;1093;102988;-78
2021/08/03 08:27:18;;;;;;;4.47;1.73;;;;;;;39.59;51.48;98987.29;125631;1093;103065;-76
2021/08/03 08:29:47;;;;;;;4.77;1.77;;;;;;;40.03;50.63;98994.24;125624;1093;102939;-76
2021/08/03 08:32:15;;;;;;;2.15;1.95;;;;;;;39.77;49.83;98998.66;125656;1091;102980;-75
2021/08/03 08:34:43;;;;;;;4.53;2.30;;;;;;;39.96;50.24;98993.83;125558;1093;102996;-73
2021/08/03 08:37:12;;;;;;;3.67;2.10;;;;;;;40.60;49.70;99000.57;125677;1093;103063;-73
2021/08/03 08:39:40;;;;;;;3.77;2.00;;;;;;;41.00;48.94;98995.19;125621;1092;103065;-70
2021/08/03 08:42:08;;;;;;;4.60;2.50;;;;;;;40.96;47.10;99004.52;125578;1093;102926;-73
2021/08/03 08:44:39;;;;;;;4.30;2.43;;;;;;;40.72;47.69;99003.67;125776;1093;103061;-75
2021/08/03 08:47:07;;;;;;;6.28;2.65;;;;;;;40.83;46.87;99006.19;125614;1092;102998;-73
2021/08/03 08:49:38;;;;;;;4.13;2.10;;;;;;;40.68;46.44;99008.22;125601;1093;103054;-74
2021/08/03 08:52:07;;;;;;;3.73;2.23;;;;;;;40.71;45.68;99006.75;125628;1093;103428;-72
2021/08/03 08:54:35;;;;;;;11.57;2.30;;;;;;;40.42;45.03;99008.75;125610;1092;102933;-73
2021/08/03 08:57:04;;;;;;;4.93;2.10;;;;;;;39.93;44.17;99004.77;125626;1093;102903;-71
2021/08/03 08:59:32;;;;;;;2.60;2.13;;;;;;;39.53;43.10;99008.83;125634;1093;102968;-74
2021/08/03 09:02:01;;;;;;;2.80;1.75;;;;;;;38.90;42.38;99010.15;125620;1093;103051;-70
2021/08/03 09:04:33;;;;;;;2.00;1.77;;;;;;;38.63;42.56;99004.12;125653;1093;102911;-77
2021/08/03 09:07:08;;;;;;;2.10;1.80;;;;;;;38.45;42.74;99002.14;125568;1092;103424;-72
2021/08/03 09:09:46;;;;;;;2.23;1.90;;;;;;;38.60;41.87;98996.38;125675;1092;102933;-83
2021/08/03 09:12:15;;;;;;;2.83;1.73;;;;;;;37.91;40.72;99000.26;125844;1093;102907;-76
2021/08/03 09:14:44;;;;;;;2.67;1.87;;;;;;;38.24;41.69;98991.30;125548;1093;102994;-72
2021/08/03 09:17:29;;;;;;;3.87;2.13;;;;;;;38.53;40.47;98996.73;125638;1092;103044;-81
2021/08/03 09:19:57;;;;;;;2.83;1.70;;;;;;;38.37;40.15;98995.28;125731;1093;102991;-77
2021/08/03 09:22:30;;;;;;;5.70;1.93;;;;;;;38.47;40.25;98994.34;125668;1093;102940;-69
2021/08/03 09:25:14;;;;;;;6.35;1.95;;;;;;;38.79;39.38;98999.15;125666;1093;102978;-70
2021/08/03 09:27:48;;;;;;;3.57;1.97;;;;;;;38.63;38.79;98997.72;125642;1093;103058;-70
2021/08/03 09:30:19;;;;;;;2.73;1.83;;;;;;;37.62;38.22;99011.39;125679;1093;103112;-75
2021/08/03 09:32:50;;;;;;;2.53;1.90;;;;;;;36.92;37.79;99005.00;125648;1092;103090;-77
2021/08/03 09:35:20;;;;;;;3.23;1.63;;;;;;;36.64;37.99;98997.17;125665;1092;102997;-72
2021/08/03 09:37:53;;;;;;;3.28;1.80;;;;;;;36.73;37.66;98985.46;125711;1092;102905;-76
2021/08/03 09:40:27;;;;;;;5.30;1.80;;;;;;;36.36;37.32;98993.96;125658;1093;103016;-77
2021/08/03 09:43:01;;;;;;;3.87;2.00;;;;;;;35.41;36.74;98993.67;125685;1092;103093;-70
2021/08/03 09:45:34;;;;;;;3.43;1.80;;;;;;;34.52;37.10;98989.16;125606;1093;103073;-69
2021/08/03 09:48:10;;;;;;;3.57;2.00;;;;;;;34.33;36.55;98985.19;125796;1092;102999;-69
2021/08/03 09:51:04;;;;;;;3.33;1.67;;;;;;;34.10;36.43;98990.08;125607;1092;103050;-69
2021/08/03 09:53:52;;;;;;;3.50;1.87;;;;;;;33.94;36.49;98980.91;125609;1093;103055;-68
2021/08/03 09:56:27;;;;;;;5.03;2.60;;;;;;;33.77;36.42;98984.64;125613;1092;103109;-68
2021/08/03 09:59:06;;;;;;;2.53;1.53;;;;;;;33.85;35.77;98980.53;125726;1092;102914;-71
2021/08/03 10:01:41;;;;;;;2.23;1.83;;;;;;;34.03;35.39;98978.45;125683;1093;103074;-74
2021/08/03 10:04:13;;;;;;;6.03;2.00;;;;;;;33.62;35.42;98974.36;125534;1092;103124;-70
2021/08/03 10:06:41;;;;;;;4.03;1.78;;;;;;;33.13;35.41;98969.86;125600;1093;103044;-69
2021/08/03 10:09:12;;;;;;;3.47;2.10;;;;;;;33.03;35.59;98975.28;125721;1091;102128;-71
2021/08/03 10:11:40;;;;;;;1.77;1.67;;;;;;;33.04;35.96;98969.48;125606;1093;103009;-73
2021/08/03 10:14:27;;;;;;;4.63;1.90;;;;;;;32.77;35.44;98977.78;125646;1093;102938;-71
2021/08/03 10:16:59;;;;;;;3.27;1.93;;;;;;;32.01;35.27;98974.69;125662;1093;102929;-69
2021/08/03 10:19:36;;;;;;;4.03;1.80;;;;;;;31.40;35.02;98989.21;125714;1091;103590;-70
2021/08/03 10:22:43;;;;;;;3.00;1.63;;;;;;;30.92;35.10;98979.59;125558;1093;102913;-72
2021/08/03 10:25:17;;;;;;;3.20;1.77;;;;;;;30.49;35.11;98987.31;125379;1095;102923;-73
2021/08/03 10:27:52;;;;;;;4.83;2.00;;;;;;;30.10;35.42;98985.16;125573;1093;103012;-72
2021/08/03 10:30:27;;;;;;;1.70;1.60;;;;;;;29.75;35.17;98981.39;125657;1093;102121;-73
2021/08/03 10:33:00;;;;;;;2.73;2.00;;;;;;;29.52;34.80;98971.27;125737;1093;103003;-70
2021/08/03 10:35:49;;;;;;;3.13;2.13;;;;;;;29.44;35.30;98977.11;125685;1093;103014;-69
2021/08/03 10:38:29;;;;;;;5.37;1.93;;;;;;;29.13;34.79;98968.13;125801;1093;102991;-71
2021/08/03 10:41:19;;;;;;;3.33;2.00;;;;;;;28.77;34.54;98981.73;125667;1093;103013;-72
2021/08/03 10:43:52;;;;;;;2.70;1.80;;;;;;;28.52;35.15;98975.30;125603;1093;103062;-74
2021/08/03 10:46:35;;;;;;;4.33;1.80;;;;;;;28.28;34.91;98974.36;125684;1092;102913;-72
2021/08/03 10:49:04;;;;;;;3.27;2.10;;;;;;;28.03;34.57;98972.55;125654;1092;102911;-68
2021/08/03 10:51:35;;;;;;;2.53;1.77;;;;;;;27.90;34.92;98976.27;125666;1092;102943;-68
2021/08/03 10:54:09;;;;;;;4.25;2.00;;;;;;;27.73;34.73;98970.55;125587;1092;103019;-70
2021/08/03 10:56:54;;;;;;;3.57;1.63;;;;;;;27.66;34.81;98967.07;125571;1093;103012;-73
2021/08/03 10:59:37;;;;;;;1.70;1.60;;;;;;;27.73;35.09;98969.72;125566;1092;103047;-70
2021/08/03 11:02:23;;;;;;;2.73;1.50;;;;;;;27.75;35.31;98973.88;125662;1093;103064;-70
2021/08/03 11:04:53;;;;;;;3.23;1.60;;;;;;;27.64;35.07;98971.92;125639;1091;102942;-70
2021/08/03 11:07:27;;;;;;;2.07;1.50;;;;;;;27.41;34.64;98964.34;125643;1092;103127;-67
2021/08/03 11:10:14;;;;;;;2.23;1.43;;;;;;;27.17;34.90;98955.92;125576;1091;102988;-69
2021/08/03 11:12:47;;;;;;;3.55;1.95;;;;;;;27.07;34.92;98963.80;125550;1093;103009;-70
2021/08/03 11:15:24;;;;;;;2.50;2.00;;;;;;;27.03;35.08;98960.66;125679;1093;102999;-68
2021/08/03 11:18:11;;;;;;;2.13;1.90;;;;;;;27.06;35.07;98945.75;125308;1093;103023;-68
2021/08/03 11:20:43;;;;;;;3.77;2.20;;;;;;;27.01;35.17;98946.41;125406;1093;103758;-67
2021/08/03 11:23:13;;;;;;;3.77;1.63;;;;;;;26.90;35.22;98943.33;125343;1093;103007;-69
2021/08/03 11:25:47;;;;;;;1.80;1.70;;;;;;;26.83;35.12;98937.11;125440;1093;103074;-68
2021/08/03 11:28:21;;;;;;;3.37;1.37;;;;;;;26.81;35.60;98930.16;125543;1093;103011;-70
2021/08/03 11:30:52;;;;;;;4.47;1.90;;;;;;;26.80;35.32;98926.61;126450;1093;102951;-70
2021/08/03 11:33:21;;;;;;;2.87;2.17;;;;;;;26.83;35.55;98919.89;125608;1093;103562;-72
2021/08/03 11:35:49;;;;;;;2.23;2.00;;;;;;;26.84;35.73;98919.69;125595;1093;102948;-70
2021/08/03 11:38:22;;;;;;;2.77;1.80;;;;;;;26.83;35.67;98912.55;125561;1093;102998;-71
2021/08/03 11:40:57;;;;;;;4.33;1.73;;;;;;;26.81;35.65;98905.59;125530;1093;102994;-71